• Join FlightAware (Why Join?)
  • Login
  • US Flag 
12:30PM EDT


 

Airport Tracker/Info


-or-


 

Live Flight TrackerFlight Track Log ✈ N411WC ✈ 14-Nov-2013 ✈ KPDX - KUAO

Flight Track Log - Related Links

Times and Time Zones

All times are in EST time to prevent confusion due to time zone crossing. See the N411WC flight status page for this flight to view local times or setup timezone preferences in your user account.

Time Position Orientation Groundspeed Altitude Reporting Facility
EST Latitude Longitude Course Direction KTS MPH feet Rate Location/Type
05:18PM 45.5931 -122.5922 272° West 141 162 500  Level Seattle Center
05:19PM 45.5953 -122.6683 272° West 161 185 2,900 1,200 Climbing Seattle Center
05:20PM 45.5925 -122.7406 267° West 170 196 3,300 480 Climbing Seattle Center
05:21PM 45.5878 -122.8042 264° West 145 167 4,000 300 Climbing Seattle Center
05:22PM 45.5825 -122.8647 263° West 163 188 4,000  Level Seattle Center
05:23PM 45.5564 -122.8542 164° South 198 228 4,000  Level Seattle Center
05:23PM 45.5489 -122.8258 111° Southeast 205 236 4,000  Level Seattle Center
05:24PM 45.5408 -122.7822 105° East 196 226 4,000  Level Seattle Center
05:24PM 45.5369 -122.7661 109° East 190 219 4,000  Level Seattle Center
05:25PM 45.5233 -122.6981 106° East 188 216 4,000  Level Seattle Center
05:25PM 45.5194 -122.6900 125° Southeast 184 212 4,000 -120 Level Seattle Center
05:26PM 45.4908 -122.6997 193° South 187 215 3,900  Descending Seattle Center
05:26PM 45.4906 -122.7078 267° West 172 198 4,000  Climbing Seattle Center
05:27PM 45.4489 -122.7372 206° Southwest 174 200 3,900 -540 Descending Seattle Center
05:28PM 45.4094 -122.7397 183° South 171 197 3,000 -840 Descending Seattle Center
05:28PM 45.4006 -122.7444 200° South 140 161 3,000 -540 Level Seattle Center
05:29PM 45.3733 -122.7481 185° South 145 167 2,500 -660 Descending Seattle Center
05:30PM 45.3369 -122.7544 187° South 136 157 1,800 -720 Descending Seattle Center
05:30PM 45.3244 -122.7536 177° South 160 184 1,600 -420 Descending Seattle Center
05:31PM 45.2950 -122.7608 190° South 135 155 1,400 -300 Descending Seattle Center